Time;durP1;ratioP1;P1;durP2;ratioP2;P2;SDS_P1;SDS_P2;PMS_P1;PMS_P2;Temp;Humidity;BMP_temperature;BMP_pressure;BME280_temperature;BME280_humidity;BME280_pressure;Samples;Min_cycle;Max_cycle;Signal;HPM_P1;HPM_P2
2022/07/26 00:01:50;;;;;;;28.38;6.05;;;;;;;18.53;79.39;100713.19;4991995;28;20044;-72
2022/07/26 00:04:16;;;;;;;28.95;5.68;;;;;;;18.52;79.41;100706.03;4988159;28;20033;-71
2022/07/26 00:06:42;;;;;;;23.50;6.00;;;;;;;18.35;80.14;100704.78;4994259;28;20049;-71
2022/07/26 00:09:07;;;;;;;25.05;6.68;;;;;;;18.40;80.42;100707.75;4994759;28;20026;-72
2022/07/26 00:11:32;;;;;;;26.25;6.32;;;;;;;18.32;81.35;100706.06;4992519;28;20030;-72
2022/07/26 00:14:03;;;;;;;18.60;6.18;;;;;;;18.41;81.85;100706.69;4996004;28;20038;-72
2022/07/26 00:16:29;;;;;;;19.73;6.13;;;;;;;18.50;79.92;100702.66;4998121;28;20022;-72
2022/07/26 00:18:54;;;;;;;24.98;6.40;;;;;;;18.54;80.48;100701.16;4987093;28;20030;-71
2022/07/26 00:21:20;;;;;;;23.60;5.70;;;;;;;18.47;80.56;100705.84;4990581;28;20883;-72
2022/07/26 00:23:46;;;;;;;23.77;5.93;;;;;;;18.23;80.83;100709.22;4986467;28;20064;-72
2022/07/26 00:26:11;;;;;;;21.55;6.30;;;;;;;18.28;80.52;100703.97;5001677;28;20061;-72
2022/07/26 00:28:37;;;;;;;24.45;5.95;;;;;;;18.04;81.76;100709.03;4985471;28;20061;-72
2022/07/26 00:31:03;;;;;;;26.23;6.03;;;;;;;18.12;80.78;100706.06;4983149;28;20070;-73
2022/07/26 00:33:28;;;;;;;19.45;5.70;;;;;;;18.33;79.91;100706.91;4983407;28;20077;-72
2022/07/26 00:35:54;;;;;;;18.80;4.53;;;;;;;18.22;79.61;100707.56;4984234;28;20034;-72
2022/07/26 00:38:19;;;;;;;13.98;4.15;;;;;;;18.13;78.91;100718.75;4998942;28;20022;-72
2022/07/26 00:40:44;;;;;;;15.73;4.40;;;;;;;18.03;78.86;100712.81;4994039;28;20022;-72
2022/07/26 00:43:10;;;;;;;15.23;4.05;;;;;;;18.01;79.52;100711.38;4986266;28;20026;-72
2022/07/26 00:45:35;;;;;;;24.65;4.03;;;;;;;18.02;78.79;100715.78;4986868;28;20060;-72
2022/07/26 00:48:01;;;;;;;14.15;3.85;;;;;;;18.09;78.65;100717.47;4992445;28;20061;-72
2022/07/26 00:50:26;;;;;;;14.25;4.00;;;;;;;18.10;77.76;100719.16;5001232;28;20018;-73
2022/07/26 00:52:53;;;;;;;23.08;5.38;;;;;;;18.12;77.88;100717.03;4983892;28;20025;-72
2022/07/26 00:55:18;;;;;;;14.63;3.95;;;;;;;17.94;79.31;100714.09;4989232;28;20091;-72
2022/07/26 00:57:44;;;;;;;20.80;3.85;;;;;;;17.95;79.10;100721.25;4996576;28;20030;-71
2022/07/26 01:00:13;;;;;;;12.95;4.10;;;;;;;18.00;78.75;100726.13;4983576;28;20121;-73
2022/07/26 01:02:39;;;;;;;18.48;3.92;;;;;;;17.87;79.23;100724.22;4984489;28;20022;-73
2022/07/26 01:05:06;;;;;;;37.42;5.32;;;;;;;17.87;79.80;100713.25;4992966;28;20027;-72
2022/07/26 01:07:31;;;;;;;16.27;3.65;;;;;;;18.01;79.04;100714.94;4993009;28;20025;-72
2022/07/26 01:09:57;;;;;;;22.67;4.97;;;;;;;17.99;78.77;100706.06;4982887;28;20022;-72
2022/07/26 01:12:23;;;;;;;17.52;4.20;;;;;;;18.20;78.44;100715.16;4998665;28;20032;-73
2022/07/26 01:14:48;;;;;;;23.77;4.43;;;;;;;18.28;78.11;100721.25;5001597;28;20420;-73
2022/07/26 01:17:14;;;;;;;18.75;4.35;;;;;;;18.25;78.22;100709.84;4991695;28;20034;-73
2022/07/26 01:19:40;;;;;;;25.65;4.05;;;;;;;18.07;78.85;100708.63;4993180;28;20035;-73
2022/07/26 01:22:06;;;;;;;15.80;4.25;;;;;;;18.20;78.68;100712.41;4989101;28;20035;-73
2022/07/26 01:24:31;;;;;;;21.35;4.90;;;;;;;18.16;78.35;100707.34;4999138;28;20037;-73
2022/07/26 01:26:57;;;;;;;26.67;5.15;;;;;;;18.18;78.29;100705.22;4993182;28;20042;-74
2022/07/26 01:29:23;;;;;;;16.42;5.00;;;;;;;17.98;78.92;100704.38;4988190;28;20029;-73
2022/07/26 01:31:50;;;;;;;31.60;4.93;;;;;;;17.97;79.10;100691.75;4987966;28;20022;-73
2022/07/26 01:34:16;;;;;;;18.35;4.90;;;;;;;17.88;79.33;100699.34;4986317;28;20026;-72
2022/07/26 01:36:41;;;;;;;21.15;3.85;;;;;;;17.83;79.84;100695.56;4999395;28;20026;-73
2022/07/26 01:39:07;;;;;;;14.70;4.30;;;;;;;17.96;79.24;100695.56;4993150;28;20429;-73
2022/07/26 01:41:32;;;;;;;17.25;5.53;;;;;;;17.91;79.60;100703.56;5002467;28;20042;-73
2022/07/26 01:43:57;;;;;;;25.88;4.45;;;;;;;17.82;79.46;100700.19;4997469;28;20030;-73
2022/07/26 01:46:23;;;;;;;20.52;4.85;;;;;;;17.88;79.29;100704.00;4994667;28;20034;-73
2022/07/26 01:48:48;;;;;;;27.27;5.03;;;;;;;17.87;78.97;100699.56;4991804;28;20029;-73
2022/07/26 01:51:14;;;;;;;22.10;4.38;;;;;;;17.88;79.06;100701.25;4991877;28;20018;-73
2022/07/26 01:53:40;;;;;;;24.42;5.13;;;;;;;17.62;80.29;100700.13;4990517;28;20022;-73
2022/07/26 01:56:05;;;;;;;19.92;4.35;;;;;;;17.85;79.28;100698.91;4993489;28;20046;-73
2022/07/26 01:58:31;;;;;;;24.80;4.70;;;;;;;17.97;78.56;100707.34;4995686;28;20033;-73
2022/07/26 02:00:56;;;;;;;23.75;5.93;;;;;;;18.02;77.96;100702.94;5003864;28;20354;-73
2022/07/26 02:03:22;;;;;;;26.23;4.53;;;;;;;17.95;78.35;100704.84;5004740;28;20022;-73
2022/07/26 02:05:47;;;;;;;16.55;3.92;;;;;;;18.05;77.62;100699.75;4991140;28;20077;-73
2022/07/26 02:08:12;;;;;;;27.45;5.45;;;;;;;17.91;78.20;100706.28;5003897;28;20386;-73
2022/07/26 02:13:22;;;;;;;24.08;5.30;;;;;;;18.02;77.40;100702.94;4988658;28;20149;-73
2022/07/26 02:15:48;;;;;;;29.58;4.53;;;;;;;18.00;77.64;100704.22;5005491;28;20543;-73
2022/07/26 02:18:13;;;;;;;25.13;5.03;;;;;;;18.01;77.98;100703.16;4996733;28;20058;-73
2022/07/26 02:20:38;;;;;;;19.30;4.32;;;;;;;18.09;77.41;100711.97;5000771;28;20041;-73
2022/07/26 02:23:04;;;;;;;28.83;4.53;;;;;;;17.98;78.13;100703.56;5002601;28;20023;-72
2022/07/26 02:25:29;;;;;;;16.58;3.65;;;;;;;18.09;77.62;100701.03;4994384;28;20080;-73
2022/07/26 02:27:55;;;;;;;23.02;4.43;;;;;;;18.15;77.44;100700.19;4995029;28;20026;-73
2022/07/26 02:30:20;;;;;;;26.90;4.90;;;;;;;18.22;77.37;100710.28;5004510;28;20025;-73
2022/07/26 02:32:46;;;;;;;25.30;4.53;;;;;;;18.08;77.81;100710.31;5003403;28;20041;-73
2022/07/26 02:35:12;;;;;;;25.27;5.30;;;;;;;17.98;77.93;100703.56;5000401;28;20026;-72
2022/07/26 02:37:39;;;;;;;23.67;5.55;;;;;;;18.02;77.88;100711.16;4991449;28;20029;-73
2022/07/26 02:40:05;;;;;;;28.60;5.18;;;;;;;17.92;78.37;100710.72;4986093;28;20053;-73
2022/07/26 02:42:31;;;;;;;26.75;4.82;;;;;;;17.99;78.36;100706.06;4992211;28;20071;-73
2022/07/26 02:44:56;;;;;;;22.83;4.13;;;;;;;17.93;78.45;100706.94;5004175;28;20025;-73
2022/07/26 02:47:21;;;;;;;19.95;4.82;;;;;;;17.99;78.13;100714.28;4997466;28;20029;-73
2022/07/26 02:49:47;;;;;;;20.15;4.90;;;;;;;17.99;78.21;100717.03;4999383;28;20045;-73
2022/07/26 02:52:12;;;;;;;28.75;4.88;;;;;;;17.90;78.75;100707.34;4993096;28;20058;-73
2022/07/26 02:54:37;;;;;;;28.10;5.45;;;;;;;17.91;78.53;100717.25;4993199;28;20027;-73
2022/07/26 02:57:03;;;;;;;23.02;5.53;;;;;;;18.01;78.19;100719.59;4993980;28;20034;-73
2022/07/26 02:59:28;;;;;;;17.88;4.22;;;;;;;17.97;78.38;100713.66;5002031;28;20116;-72
2022/07/26 03:01:54;;;;;;;23.17;5.25;;;;;;;17.90;78.59;100712.81;4998897;28;20041;-73
2022/07/26 03:04:19;;;;;;;25.48;4.47;;;;;;;18.00;78.36;100718.75;4997420;28;20018;-73
2022/07/26 03:06:45;;;;;;;33.40;5.15;;;;;;;18.09;78.13;100722.94;4995118;28;20117;-72
2022/07/26 03:09:10;;;;;;;28.45;5.63;;;;;;;18.03;78.14;100728.44;4995874;28;20029;-73
2022/07/26 03:11:35;;;;;;;29.25;5.22;;;;;;;18.18;77.39;100721.66;4995641;28;20030;-73
2022/07/26 03:14:01;;;;;;;24.52;4.90;;;;;;;18.22;77.90;100737.69;4986595;28;20177;-73
2022/07/26 03:16:26;;;;;;;27.10;6.00;;;;;;;18.27;77.50;100740.66;4989236;28;20026;-73
2022/07/26 03:18:51;;;;;;;22.88;5.22;;;;;;;18.17;77.79;100741.91;5000202;28;20044;-73
2022/07/26 03:21:17;;;;;;;20.67;4.47;;;;;;;18.14;77.81;100731.38;4995005;28;20399;-71
2022/07/26 03:23:42;;;;;;;23.67;4.95;;;;;;;18.10;77.97;100735.59;4987074;28;20403;-71
2022/07/26 03:26:07;;;;;;;23.60;5.50;;;;;;;18.22;77.59;100737.69;4997701;28;20046;-71
2022/07/26 03:28:33;;;;;;;27.08;5.13;;;;;;;18.31;77.01;100730.94;4999784;28;20033;-71
2022/07/26 03:31:00;;;;;;;21.40;4.65;;;;;;;18.01;78.36;100736.88;5000069;28;20044;-71
2022/07/26 03:33:25;;;;;;;20.15;4.75;;;;;;;18.20;77.74;100739.81;4985152;28;20089;-72
2022/07/26 03:35:50;;;;;;;23.50;5.25;;;;;;;18.20;77.56;100735.19;4984007;28;20022;-72
2022/07/26 03:38:16;;;;;;;24.85;4.15;;;;;;;18.30;76.91;100740.22;4997946;28;20029;-72
2022/07/26 03:40:41;;;;;;;27.98;5.28;;;;;;;18.13;78.05;100729.69;5000016;28;20015;-72
2022/07/26 03:43:06;;;;;;;28.67;5.82;;;;;;;18.08;78.27;100736.88;4983905;28;20030;-72
2022/07/26 03:45:32;;;;;;;26.25;4.80;;;;;;;18.17;78.25;100744.66;4995374;28;20050;-72
2022/07/26 03:47:57;;;;;;;26.20;5.72;;;;;;;17.96;79.18;100739.38;4983057;28;20117;-71
2022/07/26 03:50:23;;;;;;;22.55;5.28;;;;;;;18.08;78.85;100740.44;4991827;28;20063;-71
2022/07/26 03:52:48;;;;;;;29.17;5.30;;;;;;;18.11;78.54;100730.94;4996060;28;20023;-71
2022/07/26 03:57:57;;;;;;;28.90;4.90;;;;;;;18.08;79.25;100737.72;4999403;28;20018;-71
2022/07/26 04:00:23;;;;;;;32.20;5.60;;;;;;;18.08;79.00;100737.72;4999901;28;20038;-71
2022/07/26 04:02:48;;;;;;;32.22;6.13;;;;;;;18.20;78.79;100739.81;4984458;28;20420;-71
2022/07/26 04:05:14;;;;;;;31.23;6.00;;;;;;;18.33;78.07;100739.81;5002114;28;20037;-71
2022/07/26 04:07:44;;;;;;;30.17;5.55;;;;;;;18.34;78.07;100736.00;5002209;28;20124;-71
2022/07/26 04:10:10;;;;;;;23.33;5.07;;;;;;;18.25;78.47;100745.47;5002690;28;20026;-71
2022/07/26 04:12:35;;;;;;;37.92;5.35;;;;;;;18.31;78.41;100736.41;4987981;28;20050;-71
2022/07/26 04:15:00;;;;;;;29.23;5.07;;;;;;;18.20;78.72;100745.31;4987247;28;20111;-71
2022/07/26 04:17:26;;;;;;;35.92;6.45;;;;;;;18.27;78.41;100740.66;4997854;28;20026;-71
2022/07/26 04:19:51;;;;;;;41.35;6.28;;;;;;;18.10;79.28;100745.69;5002792;28;20033;-71
2022/07/26 04:22:17;;;;;;;26.33;5.40;;;;;;;18.27;78.84;100740.66;4991733;28;20024;-71
2022/07/26 04:24:42;;;;;;;31.67;6.18;;;;;;;18.00;79.73;100735.19;5001495;28;20249;-71
2022/07/26 04:27:07;;;;;;;27.83;5.70;;;;;;;18.05;79.79;100743.59;4997134;28;20389;-71
2022/07/26 04:29:33;;;;;;;28.95;5.82;;;;;;;18.11;79.14;100742.75;4995867;28;20034;-71
2022/07/26 04:31:58;;;;;;;28.52;5.63;;;;;;;18.14;79.54;100742.34;4992662;28;20132;-71
2022/07/26 04:34:23;;;;;;;23.63;5.32;;;;;;;18.08;79.63;100748.66;4992307;28;20042;-71
2022/07/26 04:36:49;;;;;;;32.80;6.78;;;;;;;18.06;79.87;100759.00;4996547;28;20026;-71
2022/07/26 04:39:14;;;;;;;27.92;5.72;;;;;;;18.16;79.34;100751.19;5003124;28;20389;-71
2022/07/26 04:41:40;;;;;;;26.15;5.43;;;;;;;18.19;79.27;100752.66;4991567;28;20089;-70
2022/07/26 04:44:05;;;;;;;36.80;6.15;;;;;;;18.16;79.23;100758.56;5001077;28;20089;-70
2022/07/26 04:46:30;;;;;;;26.45;5.15;;;;;;;18.12;79.08;100766.34;4994448;28;20026;-71
2022/07/26 04:48:55;;;;;;;20.30;5.13;;;;;;;18.22;79.08;100754.16;4984556;28;20030;-71
2022/07/26 04:51:21;;;;;;;31.35;5.68;;;;;;;18.23;78.88;100755.81;4995546;28;20101;-71
2022/07/26 04:53:46;;;;;;;29.55;5.93;;;;;;;18.26;78.71;100756.25;4997814;28;20022;-71
2022/07/26 04:56:12;;;;;;;28.70;5.65;;;;;;;18.24;79.22;100763.00;5002902;28;20022;-72
2022/07/26 04:58:37;;;;;;;27.60;5.65;;;;;;;17.99;80.21;100762.75;4991570;28;20057;-71
2022/07/26 05:01:02;;;;;;;26.42;4.95;;;;;;;17.77;82.55;100762.13;4995754;28;20118;-71
2022/07/26 05:03:28;;;;;;;17.80;3.65;;;;;;;17.83;80.96;100762.13;4998422;28;20030;-71
2022/07/26 05:05:53;;;;;;;12.25;3.50;;;;;;;17.73;81.38;100766.31;4988955;28;20089;-72
2022/07/26 05:08:19;;;;;;;14.10;3.83;;;;;;;17.55;81.81;100767.72;4993087;28;20079;-71
2022/07/26 05:10:44;;;;;;;11.48;3.47;;;;;;;17.33;81.87;100777.97;4989955;28;20488;-72
2022/07/26 05:13:10;;;;;;;10.32;2.90;;;;;;;17.18;83.29;100762.75;4987736;28;20072;-72
2022/07/26 05:15:38;;;;;;;15.27;3.20;;;;;;;17.24;83.69;100783.84;5004762;28;20047;-73
2022/07/26 05:18:08;;;;;;;9.88;3.38;;;;;;;17.31;82.91;100779.22;4996714;28;20030;-74
2022/07/26 05:20:34;;;;;;;14.73;3.95;;;;;;;17.16;82.93;100770.34;5005780;28;20025;-73
2022/07/26 05:23:00;;;;;;;6.82;3.97;;;;;;;17.23;83.63;100771.19;4996688;28;20041;-74
2022/07/26 05:25:25;;;;;;;15.77;4.35;;;;;;;17.08;84.81;100774.94;5001534;28;20027;-74
2022/07/26 05:27:51;;;;;;;50.80;7.53;;;;;;;16.77;87.26;100785.50;5006696;28;20026;-84
2022/07/26 05:30:17;;;;;;;38.47;7.90;;;;;;;16.43;89.51;100792.59;5007607;28;20635;-77
2022/07/26 05:32:42;;;;;;;22.42;6.93;;;;;;;16.46;90.27;100786.72;4991759;28;20033;-75
2022/07/26 05:35:08;;;;;;;11.63;4.80;;;;;;;16.39;89.46;100788.56;4992675;28;20018;-75
2022/07/26 05:37:35;;;;;;;25.30;5.85;;;;;;;16.58;89.34;100794.38;4993387;28;20022;-76
2022/07/26 05:40:01;;;;;;;16.58;5.40;;;;;;;16.63;89.65;100791.88;4996315;28;20045;-77
2022/07/26 05:42:26;;;;;;;26.92;6.60;;;;;;;16.68;90.13;100805.78;5007598;28;20045;-77
2022/07/26 05:44:52;;;;;;;15.10;5.32;;;;;;;16.64;89.84;100799.88;5005161;28;20025;-76
2022/07/26 05:47:18;;;;;;;11.02;5.25;;;;;;;16.77;89.84;100804.63;5012991;28;20032;-76
2022/07/26 05:49:43;;;;;;;9.90;5.25;;;;;;;16.87;89.63;100805.09;5005073;28;20026;-78
2022/07/26 05:52:09;;;;;;;11.73;5.68;;;;;;;16.83;88.89;100798.34;5003562;28;20041;-77
2022/07/26 05:54:34;;;;;;;11.93;3.95;;;;;;;16.59;89.32;100823.38;5005233;28;20030;-78
2022/07/26 05:57:00;;;;;;;12.70;4.82;;;;;;;16.83;89.48;100812.03;4998219;28;20033;-77
2022/07/26 05:59:25;;;;;;;16.27;4.72;;;;;;;16.77;88.78;100815.56;4997867;28;20354;-77
2022/07/26 06:01:54;;;;;;;13.45;5.10;;;;;;;16.82;89.64;100818.53;4994556;28;20025;-77
2022/07/26 06:04:21;;;;;;;13.02;5.55;;;;;;;16.98;89.05;100817.38;4995443;28;20151;-77
2022/07/26 06:06:46;;;;;;;16.42;5.32;;;;;;;17.09;87.96;100814.91;5002523;28;20029;-77
2022/07/26 06:09:12;;;;;;;11.00;5.38;;;;;;;17.16;88.29;100814.09;5009745;28;20013;-78
2022/07/26 06:11:37;;;;;;;16.08;5.22;;;;;;;17.13;87.79;100819.97;5007395;28;20083;-77
2022/07/26 06:14:03;;;;;;;13.93;5.43;;;;;;;16.87;88.19;100821.50;4992050;28;20058;-77
2022/07/26 06:16:28;;;;;;;17.27;6.22;;;;;;;17.02;88.42;100830.44;4991301;28;20026;-77
2022/07/26 06:18:54;;;;;;;17.10;6.45;;;;;;;17.06;89.07;100822.66;4992721;28;20049;-77
2022/07/26 06:21:19;;;;;;;7.55;5.00;;;;;;;17.05;88.58;100835.50;4991644;28;20090;-78
2022/07/26 06:23:45;;;;;;;15.75;6.47;;;;;;;17.25;87.64;100829.28;4992921;28;20033;-76
2022/07/26 06:26:11;;;;;;;13.00;5.45;;;;;;;17.31;87.56;100833.97;5010821;28;20037;-79
2022/07/26 06:28:38;;;;;;;11.00;5.15;;;;;;;17.34;87.84;100833.53;5011886;28;20175;-78
2022/07/26 06:31:04;;;;;;;15.07;5.63;;;;;;;17.37;88.34;100838.63;5007726;28;20041;-77
2022/07/26 06:33:30;;;;;;;16.45;5.55;;;;;;;17.38;86.71;100840.31;4990275;28;20157;-77
2022/07/26 06:35:55;;;;;;;18.05;5.47;;;;;;;17.57;86.80;100839.53;5003122;28;20045;-74
2022/07/26 06:38:21;;;;;;;21.02;4.95;;;;;;;17.35;86.35;100840.72;4995185;28;20022;-77
2022/07/26 06:40:46;;;;;;;15.18;5.15;;;;;;;17.38;87.29;100856.72;4994699;28;20042;-77
2022/07/26 06:43:12;;;;;;;16.45;4.25;;;;;;;17.58;87.29;100841.22;4991902;28;20100;-76
2022/07/26 06:45:37;;;;;;;13.40;4.22;;;;;;;17.55;86.83;100844.38;4999283;28;20057;-77
2022/07/26 06:48:03;;;;;;;21.83;5.97;;;;;;;17.72;86.92;100835.81;4994364;28;20112;-76
2022/07/26 06:50:28;;;;;;;20.23;5.07;;;;;;;17.88;87.13;100840.94;5001870;28;20021;-75
2022/07/26 06:52:54;;;;;;;14.55;4.38;;;;;;;17.66;85.39;100850.31;5004528;28;20048;-76
2022/07/26 06:55:20;;;;;;;16.13;4.75;;;;;;;17.63;86.87;100846.94;5000976;28;20019;-76
2022/07/26 06:57:45;;;;;;;16.02;4.40;;;;;;;17.73;85.44;100846.56;4997940;28;20022;-75
2022/07/26 07:00:11;;;;;;;23.92;5.03;;;;;;;17.71;86.20;100853.28;5004998;28;20034;-75
2022/07/26 07:02:37;;;;;;;13.38;4.38;;;;;;;17.44;86.67;100855.06;4993100;28;20565;-78
2022/07/26 07:05:03;;;;;;;19.70;4.97;;;;;;;17.11;89.24;100871.31;5004899;28;20033;-79
2022/07/26 07:07:28;;;;;;;23.10;5.93;;;;;;;16.95;90.20;100873.34;4990228;28;20019;-79
2022/07/26 07:09:54;;;;;;;8.63;2.92;;;;;;;17.03;88.37;100859.50;4989400;28;20257;-79
2022/07/26 07:12:25;;;;;;;16.45;3.38;;;;;;;16.96;89.12;100874.19;4990475;28;20025;-78
2022/07/26 07:14:51;;;;;;;10.35;2.83;;;;;;;16.90;88.14;100875.81;4992495;28;20113;-78
2022/07/26 07:17:19;;;;;;;13.75;2.85;;;;;;;16.99;87.25;100891.00;4992531;28;20027;-78
2022/07/26 07:19:45;;;;;;;10.00;2.75;;;;;;;17.02;86.65;100887.06;4993247;28;20045;-78
2022/07/26 07:22:11;;;;;;;10.38;2.00;;;;;;;17.02;83.45;100885.16;4990888;28;20117;-78
2022/07/26 07:24:37;;;;;;;13.63;2.55;;;;;;;17.16;84.49;100885.25;4989783;28;20054;-76
2022/07/26 07:27:03;;;;;;;21.48;8.02;;;;;;;17.16;84.43;100890.72;4987833;28;20033;-76
2022/07/26 07:29:29;;;;;;;8.40;2.42;;;;;;;17.13;84.17;100893.84;4988068;28;20022;-77
2022/07/26 07:31:54;;;;;;;12.45;2.45;;;;;;;17.08;83.02;100895.31;4986372;28;20101;-75
2022/07/26 07:34:21;;;;;;;10.82;2.42;;;;;;;17.35;83.67;100911.88;5005260;28;20116;-77
2022/07/26 07:36:51;;;;;;;9.02;2.60;;;;;;;17.71;84.16;100905.31;5003355;28;20029;-76
2022/07/26 07:39:17;;;;;;;10.75;2.42;;;;;;;17.93;82.58;100912.41;5005366;28;20030;-75
2022/07/26 07:41:44;;;;;;;12.45;3.30;;;;;;;18.18;80.85;100913.50;5003802;28;20076;-76
2022/07/26 07:44:10;;;;;;;11.90;2.13;;;;;;;18.14;82.61;100923.19;5003895;28;20022;-77
2022/07/26 07:46:35;;;;;;;18.13;2.95;;;;;;;18.18;80.23;100921.72;4994483;28;20100;-74
2022/07/26 07:49:01;;;;;;;10.30;1.90;;;;;;;17.99;80.48;100940.84;4996829;28;20018;-77
2022/07/26 07:51:27;;;;;;;8.15;1.52;;;;;;;16.85;83.20;100943.94;4999055;28;20030;-80
2022/07/26 07:53:53;;;;;;;6.65;1.85;;;;;;;16.49;86.27;100954.91;4990062;28;20022;-77
2022/07/26 07:56:20;;;;;;;8.98;1.83;;;;;;;16.47;84.86;100968.78;4989443;28;20026;-78
2022/07/26 07:58:46;;;;;;;6.80;1.50;;;;;;;16.51;83.25;100964.63;4989619;28;20033;-76
2022/07/26 08:01:12;;;;;;;16.10;2.05;;;;;;;16.61;84.30;100968.91;4989107;28;20022;-77
2022/07/26 08:03:39;;;;;;;9.98;1.30;;;;;;;16.80;83.01;100968.28;4987387;28;20054;-78
2022/07/26 08:06:07;;;;;;;11.23;1.98;;;;;;;17.03;82.46;100968.91;4989411;28;20038;-77
2022/07/26 08:08:35;;;;;;;8.25;1.83;;;;;;;17.05;82.00;100977.75;4989896;28;20085;-76
2022/07/26 08:11:01;;;;;;;15.13;2.05;;;;;;;17.23;82.21;100973.69;4984452;28;20515;-77
2022/07/26 08:13:27;;;;;;;8.30;1.92;;;;;;;17.41;82.24;100968.56;4985101;28;20022;-76
2022/07/26 08:15:54;;;;;;;7.88;1.48;;;;;;;17.12;80.58;100983.28;4983997;28;20113;-74
2022/07/26 08:18:21;;;;;;;5.80;1.25;;;;;;;17.19;81.91;100973.22;4991848;28;20030;-74
2022/07/26 08:20:46;;;;;;;9.65;2.13;;;;;;;17.75;80.45;100972.38;5003175;28;20059;-76
2022/07/26 08:23:13;;;;;;;5.35;1.58;;;;;;;17.79;80.19;100973.63;5005605;28;20026;-77
2022/07/26 08:25:39;;;;;;;9.90;1.73;;;;;;;17.77;78.64;100981.22;5001760;28;20030;-78
2022/07/26 08:28:04;;;;;;;8.43;1.75;;;;;;;18.24;75.62;100987.72;4989273;28;20088;-77
2022/07/26 08:30:33;;;;;;;11.27;1.55;;;;;;;18.08;75.55;100976.09;5006087;28;20085;-76
2022/07/26 08:32:58;;;;;;;7.78;1.92;;;;;;;18.36;76.77;100980.59;4999085;28;20105;-78
2022/07/26 08:35:24;;;;;;;7.85;1.67;;;;;;;18.46;76.27;100986.53;4998165;28;20166;-76
2022/07/26 08:37:50;;;;;;;10.90;2.00;;;;;;;18.16;76.66;100981.38;5006768;28;20045;-75
2022/07/26 08:40:16;;;;;;;5.82;1.48;;;;;;;18.22;74.72;100984.34;4997742;28;20053;-75
2022/07/26 08:42:57;;;;;;;11.50;1.88;;;;;;;17.78;78.03;100993.84;4988228;28;20125;-78
2022/07/26 08:45:24;;;;;;;9.50;1.88;;;;;;;17.73;77.50;101015.53;4989262;28;20029;-77
2022/07/26 08:47:50;;;;;;;8.32;1.50;;;;;;;17.34;77.46;101008.69;4989564;28;20053;-76
2022/07/26 08:50:16;;;;;;;11.38;1.63;;;;;;;17.34;75.23;101019.66;5000570;28;20033;-76
2022/07/26 08:52:43;;;;;;;5.90;1.10;;;;;;;17.33;75.50;101023.44;5012122;28;20030;-76
2022/07/26 08:55:09;;;;;;;6.47;1.88;;;;;;;17.48;75.00;101026.94;5002541;28;20025;-75
2022/07/26 08:57:34;;;;;;;7.32;1.30;;;;;;;17.92;73.28;101025.75;5001454;28;20022;-76
2022/07/26 09:00:23;;;;;;;5.95;1.35;;;;;;;18.10;70.44;101042.50;5001937;28;20069;-75
2022/07/26 09:02:49;;;;;;;6.75;1.30;;;;;;;18.42;69.27;101040.09;4992780;28;20030;-76
2022/07/26 09:05:18;;;;;;;11.40;1.17;;;;;;;17.84;69.53;101042.34;4998845;28;20021;-75
2022/07/26 09:07:44;;;;;;;11.05;1.67;;;;;;;17.77;67.88;101052.41;5006247;28;20026;-75
2022/07/26 09:10:12;;;;;;;7.20;1.58;;;;;;;18.00;69.03;101053.00;5005173;28;20022;-75
2022/07/26 09:12:39;;;;;;;5.50;1.10;;;;;;;18.18;68.25;101056.00;5004683;28;20108;-75
2022/07/26 09:15:15;;;;;;;3.03;1.23;;;;;;;18.35;68.89;101062.00;5001546;28;20026;-75
2022/07/26 09:17:42;;;;;;;10.43;1.40;;;;;;;18.11;67.92;101077.06;5003214;28;20045;-75
2022/07/26 09:20:13;;;;;;;10.82;1.85;;;;;;;17.41;72.09;101064.38;4995445;28;20022;-74
2022/07/26 09:23:06;;;;;;;8.90;1.58;;;;;;;16.89;75.83;101076.53;4998028;28;20052;-75
2022/07/26 09:25:40;;;;;;;5.90;1.00;;;;;;;16.81;76.76;101084.81;4989617;28;20057;-74
2022/07/26 09:28:28;;;;;;;7.97;1.98;;;;;;;16.83;76.13;101088.22;5005837;28;20053;-74
2022/07/26 09:30:59;;;;;;;12.43;1.95;;;;;;;17.00;76.72;101095.13;4998213;28;20495;-75
2022/07/26 09:33:25;;;;;;;6.70;1.00;;;;;;;17.41;76.00;101091.75;4995580;28;20362;-74
2022/07/26 09:36:03;;;;;;;12.55;2.03;;;;;;;17.22;75.00;101086.94;4995243;28;20092;-73
2022/07/26 09:38:47;;;;;;;7.07;1.35;;;;;;;17.79;72.68;101094.13;4996283;28;20049;-73
2022/07/26 09:41:29;;;;;;;7.38;1.48;;;;;;;17.94;72.29;101097.63;4988122;28;20081;-75
2022/07/26 09:44:18;;;;;;;15.43;1.95;;;;;;;18.12;70.00;101097.94;5002470;28;20097;-75
2022/07/26 09:46:55;;;;;;;7.60;1.35;;;;;;;19.37;67.47;101093.09;5002768;28;20033;-74
2022/07/26 09:49:22;;;;;;;4.50;1.10;;;;;;;19.18;66.23;101100.25;4986885;28;20045;-75
2022/07/26 09:51:53;;;;;;;8.18;1.45;;;;;;;19.13;64.09;101097.28;4994986;28;20022;-75
2022/07/26 09:54:27;;;;;;;8.07;1.40;;;;;;;19.06;64.93;101102.75;4996127;28;20496;-74
2022/07/26 09:56:53;;;;;;;8.32;1.88;;;;;;;18.44;66.11;101104.63;4998781;28;20500;-74
2022/07/26 09:59:21;;;;;;;11.98;2.25;;;;;;;18.54;64.67;101109.75;5001401;28;20026;-74
2022/07/26 10:01:47;;;;;;;6.72;1.55;;;;;;;19.32;63.15;101112.09;5003954;28;20022;-74
2022/07/26 10:04:13;;;;;;;11.02;1.83;;;;;;;19.55;61.46;101117.97;4994446;28;20045;-74
2022/07/26 10:06:40;;;;;;;11.98;1.70;;;;;;;19.22;61.65;101116.06;4994543;28;20014;-73
2022/07/26 10:09:06;;;;;;;7.70;1.73;;;;;;;19.04;62.15;101115.84;4991791;28;20033;-73
2022/07/26 10:11:44;;;;;;;10.13;2.00;;;;;;;18.98;61.75;101127.66;5000722;28;20029;-73
2022/07/26 10:14:32;;;;;;;6.28;1.33;;;;;;;18.97;62.17;101120.44;4995166;28;20026;-74
2022/07/26 10:16:58;;;;;;;6.88;1.95;;;;;;;18.89;62.05;101131.63;4989787;28;20049;-73
2022/07/26 10:19:40;;;;;;;10.02;1.83;;;;;;;19.16;60.84;101125.13;4993470;28;20030;-73
2022/07/26 10:22:26;;;;;;;6.45;1.60;;;;;;;19.73;59.97;101120.97;4998374;28;20034;-73
2022/07/26 10:24:52;;;;;;;6.57;1.70;;;;;;;19.95;58.47;101131.72;4999387;28;20018;-73
2022/07/26 10:27:40;;;;;;;7.78;1.52;;;;;;;20.64;57.38;101139.41;4989659;28;20050;-73
2022/07/26 10:30:14;;;;;;;6.68;1.30;;;;;;;20.63;56.40;101132.22;4996598;28;20042;-74
2022/07/26 10:32:49;;;;;;;9.55;2.00;;;;;;;19.87;59.46;101131.94;4998843;28;20029;-73
2022/07/26 10:35:37;;;;;;;13.80;2.25;;;;;;;19.51;58.67;101139.56;5003179;28;20118;-73
2022/07/26 10:38:11;;;;;;;10.20;1.73;;;;;;;20.00;55.73;101131.94;4990442;28;20034;-73
2022/07/26 10:40:38;;;;;;;6.68;1.30;;;;;;;19.76;56.47;101131.56;4991101;28;20038;-74
2022/07/26 10:43:14;;;;;;;5.63;1.90;;;;;;;20.05;54.60;101152.22;4995051;28;20169;-74
2022/07/26 10:45:40;;;;;;;7.20;1.63;;;;;;;19.65;54.98;101132.19;4983722;28;20023;-73
2022/07/26 10:48:17;;;;;;;11.27;1.90;;;;;;;19.62;55.95;101140.84;4995387;28;20025;-73
2022/07/26 10:50:49;;;;;;;10.68;1.50;;;;;;;19.75;55.13;101151.81;4993743;28;20022;-73
2022/07/26 10:53:22;;;;;;;7.07;1.38;;;;;;;19.84;53.79;101144.22;5001998;28;20022;-74
2022/07/26 10:55:56;;;;;;;11.65;1.80;;;;;;;19.79;52.57;101158.59;4995677;28;20022;-74
2022/07/26 10:58:23;;;;;;;7.25;1.30;;;;;;;19.99;52.48;101138.50;4994855;28;20022;-73
2022/07/26 11:01:07;;;;;;;5.20;1.30;;;;;;;19.41;52.48;101155.59;4990636;28;20045;-73
2022/07/26 11:03:41;;;;;;;14.07;2.63;;;;;;;19.37;51.55;101142.50;4986735;28;20113;-73
2022/07/26 11:06:09;;;;;;;10.27;1.58;;;;;;;19.53;51.04;101164.91;4986673;28;20172;-73
2022/07/26 11:08:34;;;;;;;5.47;1.38;;;;;;;19.48;51.69;101161.09;5000362;28;20037;-74
2022/07/26 11:10:59;;;;;;;7.68;1.50;;;;;;;19.70;51.94;101165.38;4992892;28;20015;-74
2022/07/26 11:13:25;;;;;;;7.10;2.22;;;;;;;19.37;52.26;101175.47;5002759;28;20542;-74
2022/07/26 11:15:59;;;;;;;9.02;1.85;;;;;;;19.81;51.99;101187.75;5000730;28;20072;-74
2022/07/26 11:18:34;;;;;;;10.02;1.60;;;;;;;19.32;51.92;101178.81;4994583;28;20031;-74
2022/07/26 11:21:14;;;;;;;13.93;2.13;;;;;;;19.34;53.31;101181.34;4999464;28;20018;-72
2022/07/26 11:23:44;;;;;;;12.32;2.05;;;;;;;19.16;54.35;101196.50;4997450;28;20049;-72
2022/07/26 11:26:13;;;;;;;16.25;2.97;;;;;;;18.34;55.73;101191.06;4989701;28;20029;-72